Time;durP1;ratioP1;P1;durP2;ratioP2;P2;SDS_P1;SDS_P2;PMS_P1;PMS_P2;Temp;Humidity;BMP_temperature;BMP_pressure;BME280_temperature;BME280_humidity;BME280_pressure;Samples;Min_cycle;Max_cycle;Signal;HPM_P1;HPM_P2
2023/10/19 00:02:05;;;;;;;47.15;30.58;;;;;;;11.55;100.00;99038.50;5047093;28;20068;-53
2023/10/19 00:04:32;;;;;;;54.58;31.77;;;;;;;11.44;100.00;99011.13;5030154;28;20098;-54
2023/10/19 00:06:57;;;;;;;48.70;30.98;;;;;;;11.54;100.00;99007.78;5032004;28;20091;-51
2023/10/19 00:09:23;;;;;;;42.38;28.58;;;;;;;11.56;100.00;99013.81;5030239;28;20481;-53
2023/10/19 00:11:51;;;;;;;48.17;30.83;;;;;;;11.51;100.00;98994.81;5030682;28;20144;-53
2023/10/19 00:14:17;;;;;;;52.90;32.17;;;;;;;11.57;100.00;98994.44;5031089;28;20033;-51
2023/10/19 00:16:49;;;;;;;53.97;31.42;;;;;;;11.29;100.00;98955.84;5031457;28;20388;-55
2023/10/19 00:19:19;;;;;;;54.75;32.17;;;;;;;11.70;100.00;99010.31;5030404;28;20041;-53
2023/10/19 00:21:50;;;;;;;67.93;34.50;;;;;;;11.69;100.00;99013.84;5031811;28;20033;-53
2023/10/19 00:24:18;;;;;;;61.13;33.95;;;;;;;11.69;100.00;99000.69;5032561;28;20045;-51
2023/10/19 00:26:44;;;;;;;53.45;31.38;;;;;;;11.36;100.00;98948.41;5034211;28;20029;-50
2023/10/19 00:29:30;;;;;;;42.10;27.90;;;;;;;11.65;100.00;98984.22;5035542;28;20083;-57
2023/10/19 00:31:59;;;;;;;51.13;31.20;;;;;;;11.75;100.00;98987.13;5034488;28;20091;-52
2023/10/19 00:34:28;;;;;;;39.72;27.98;;;;;;;11.73;100.00;98983.75;5050327;28;20054;-55
2023/10/19 00:36:55;;;;;;;50.03;31.30;;;;;;;11.92;100.00;99004.47;5050807;28;20052;-51
2023/10/19 00:39:21;;;;;;;52.78;30.88;;;;;;;11.95;100.00;99004.25;5035477;28;20542;-47
2023/10/19 00:41:47;;;;;;;45.80;28.35;;;;;;;11.74;100.00;98969.63;5033700;28;20041;-52
2023/10/19 00:44:16;;;;;;;47.65;29.73;;;;;;;11.60;100.00;98944.16;5034012;28;20464;-49
2023/10/19 00:49:09;;;;;;;59.55;31.20;;;;;;;11.94;100.00;99000.75;5034984;28;20052;-58
2023/10/19 00:57:10;;;;;;;58.03;31.58;;;;;;;12.06;100.00;98993.81;5035296;28;20060;-52
2023/10/19 00:59:42;;;;;;;58.47;32.38;;;;;;;12.01;100.00;98980.09;5032337;28;20040;-55
2023/10/19 01:02:19;;;;;;;53.63;31.05;;;;;;;11.69;100.00;98924.25;5034067;28;20120;-53
2023/10/19 01:05:04;;;;;;;58.25;31.92;;;;;;;11.66;100.00;98920.03;5033847;28;20038;-55
2023/10/19 01:07:30;;;;;;;45.63;30.27;;;;;;;12.08;100.00;98984.03;5034768;28;20045;-52
2023/10/19 01:09:59;;;;;;;62.20;33.17;;;;;;;12.06;100.00;98978.84;5050223;28;20080;-55
2023/10/19 01:12:33;;;;;;;54.50;32.03;;;;;;;12.13;100.00;98992.47;5034848;28;20041;-53
2023/10/19 01:15:23;;;;;;;56.13;32.85;;;;;;;11.83;100.00;98935.59;5033747;28;20040;-53
2023/10/19 01:17:56;;;;;;;49.58;31.73;;;;;;;12.25;100.00;99003.03;5032609;28;20037;-53
2023/10/19 01:20:33;;;;;;;63.03;33.80;;;;;;;12.19;100.00;98979.72;5033596;28;20063;-52
2023/10/19 01:25:58;;;;;;;72.45;35.90;;;;;;;12.33;100.00;98999.88;5034478;28;20045;-55
2023/10/19 01:31:08;;;;;;;62.75;33.72;;;;;;;12.07;100.00;98935.72;5034815;28;20033;-54
2023/10/19 01:33:34;;;;;;;52.65;32.63;;;;;;;12.10;100.00;98926.75;5032627;28;20033;-54
2023/10/19 01:38:47;;;;;;;49.58;31.90;;;;;;;12.60;100.00;98991.84;5034594;28;20110;-57
2023/10/19 01:41:13;;;;;;;74.32;37.17;;;;;;;12.66;100.00;98987.00;5033883;28;20091;-54
2023/10/19 01:43:42;;;;;;;55.58;31.63;;;;;;;12.74;100.00;98987.28;5032994;28;20064;-57
2023/10/19 01:46:12;;;;;;;52.47;30.90;;;;;;;12.77;100.00;98975.66;5032171;28;20032;-53
2023/10/19 01:48:44;;;;;;;46.63;28.30;;;;;;;12.87;100.00;98982.00;5032941;28;20050;-51
2023/10/19 01:51:11;;;;;;;45.78;25.52;;;;;;;12.88;100.00;98968.66;5033531;28;20033;-56
2023/10/19 01:53:39;;;;;;;40.20;23.05;;;;;;;12.70;100.00;98908.41;5033957;28;20499;-55
2023/10/19 01:56:12;;;;;;;41.42;22.05;;;;;;;13.19;100.00;98980.53;5034070;28;20045;-54
2023/10/19 01:58:39;;;;;;;29.98;19.63;;;;;;;13.27;100.00;98977.38;5033037;28;20091;-55
2023/10/19 02:01:20;;;;;;;16.10;13.00;;;;;;;13.33;100.00;98959.28;5034026;28;20041;-53
2023/10/19 02:03:47;;;;;;;19.23;13.10;;;;;;;13.18;100.00;98922.56;5047640;28;20034;-52
2023/10/19 02:06:17;;;;;;;20.85;12.55;;;;;;;13.56;100.00;98976.06;5047504;28;20179;-51
2023/10/19 02:09:25;;;;;;;14.52;10.10;;;;;;;13.62;100.00;98972.97;5033832;28;20116;-55
2023/10/19 02:11:58;;;;;;;14.13;8.73;;;;;;;13.65;100.00;98971.91;5033874;28;20083;-55
2023/10/19 02:14:25;;;;;;;8.20;6.53;;;;;;;13.64;100.00;98957.84;5033945;28;20388;-52
2023/10/19 02:16:52;;;;;;;9.90;6.82;;;;;;;13.38;100.00;98900.78;5033784;28;20041;-51
2023/10/19 02:19:19;;;;;;;10.88;5.57;;;;;;;13.46;100.00;98909.81;5032193;28;20038;-54
2023/10/19 02:21:48;;;;;;;8.40;4.97;;;;;;;13.77;100.00;98950.69;5031741;28;20103;-57
2023/10/19 02:24:14;;;;;;;9.07;4.78;;;;;;;12.98;100.00;98813.06;5033393;28;20033;-52
2023/10/19 02:26:40;;;;;;;9.07;5.78;;;;;;;13.79;100.00;98948.75;5033596;28;20065;-53
2023/10/19 02:29:09;;;;;;;9.05;5.85;;;;;;;13.85;100.00;98955.38;5032219;28;20083;-55
2023/10/19 02:31:40;;;;;;;9.88;5.35;;;;;;;13.40;100.00;98886.50;5032301;28;20470;-55
2023/10/19 02:34:10;;;;;;;5.53;4.90;;;;;;;13.31;100.00;98889.00;5048559;28;20033;-51
2023/10/19 02:36:37;;;;;;;8.90;5.13;;;;;;;13.43;100.00;98885.41;5033409;28;20061;-54
2023/10/19 02:39:08;;;;;;;7.45;5.93;;;;;;;13.77;100.00;98948.03;5030722;28;20029;-50
2023/10/19 02:41:38;;;;;;;8.73;4.22;;;;;;;13.43;100.00;98888.06;5048256;28;20029;-53
2023/10/19 02:44:19;;;;;;;7.68;4.88;;;;;;;13.42;100.00;98891.69;5033178;28;20108;-52
2023/10/19 02:46:45;;;;;;;11.43;4.80;;;;;;;13.47;100.00;98887.72;5033219;28;20033;-58
2023/10/19 02:49:13;;;;;;;9.73;5.20;;;;;;;13.72;100.00;98934.31;5048405;28;20396;-52
2023/10/19 02:51:40;;;;;;;6.07;3.97;;;;;;;13.44;100.00;98887.97;5033128;28;20484;-56
2023/10/19 02:54:07;;;;;;;7.38;3.88;;;;;;;13.78;100.00;98933.00;5030338;28;20045;-52
2023/10/19 02:56:35;;;;;;;8.90;3.58;;;;;;;13.75;100.00;98933.22;5031904;28;20044;-54
2023/10/19 02:59:03;;;;;;;6.15;4.22;;;;;;;13.79;100.00;98942.63;5032938;28;20116;-54
2023/10/19 03:01:31;;;;;;;4.85;3.50;;;;;;;13.76;100.00;98935.78;5031608;28;20395;-55
2023/10/19 03:04:00;;;;;;;4.72;2.90;;;;;;;13.74;100.00;98932.41;5048215;28;20045;-53
2023/10/19 03:06:35;;;;;;;5.18;2.70;;;;;;;13.39;100.00;98884.84;5031628;28;20033;-55
2023/10/19 03:09:12;;;;;;;7.93;2.78;;;;;;;13.77;100.00;98944.56;5047263;28;20036;-56
2023/10/19 03:11:40;;;;;;;4.60;2.80;;;;;;;13.49;100.00;98880.53;5029925;28;20187;-51
2023/10/19 03:14:06;;;;;;;6.22;2.70;;;;;;;13.81;100.00;98932.75;5032403;28;20061;-50
2023/10/19 03:16:31;;;;;;;7.25;2.50;;;;;;;13.53;100.00;98883.78;5032746;28;20123;-55
2023/10/19 03:18:56;;;;;;;6.95;2.40;;;;;;;13.59;100.00;98888.63;5047805;28;20038;-53
2023/10/19 03:21:26;;;;;;;6.32;2.20;;;;;;;13.45;100.00;98865.03;5048019;28;20456;-57
2023/10/19 03:23:53;;;;;;;6.25;2.15;;;;;;;13.32;100.00;98857.16;5032558;28;20135;-53
2023/10/19 03:26:23;;;;;;;5.78;2.67;;;;;;;13.64;100.00;98926.13;5030737;28;20073;-57
2023/10/19 03:28:55;;;;;;;4.65;2.45;;;;;;;13.23;100.00;98865.78;5031145;28;20493;-54
2023/10/19 03:31:26;;;;;;;5.38;2.58;;;;;;;13.51;100.00;98928.81;5032262;28;20065;-55
2023/10/19 03:33:55;;;;;;;9.07;2.60;;;;;;;13.34;100.00;98896.66;5046929;28;20121;-55
2023/10/19 03:36:24;;;;;;;6.18;2.40;;;;;;;13.13;100.00;98869.22;5047399;28;20049;-55
2023/10/19 03:38:51;;;;;;;6.05;2.20;;;;;;;13.24;100.00;98907.09;5032207;28;20038;-54
2023/10/19 03:41:25;;;;;;;7.57;2.85;;;;;;;13.30;100.00;98925.16;5045439;28;20446;-56
2023/10/19 03:43:54;;;;;;;8.07;2.38;;;;;;;13.28;100.00;98926.22;4992769;28;20474;-55
2023/10/19 03:46:24;;;;;;;5.50;2.83;;;;;;;12.87;100.00;98857.91;4991697;28;20030;-54
2023/10/19 03:48:50;;;;;;;5.25;2.83;;;;;;;13.13;100.00;98908.84;4991498;28;20031;-52
2023/10/19 03:51:17;;;;;;;6.18;2.33;;;;;;;13.30;100.00;98929.59;4991355;28;20066;-56
2023/10/19 03:53:48;;;;;;;9.45;2.45;;;;;;;13.33;100.00;98932.84;4992692;28;20039;-52
2023/10/19 03:56:13;;;;;;;;;;;;;;;13.34;100.00;98923.09;4993146;28;20035;-51
2023/10/19 03:58:41;;;;;;;6.05;2.67;;;;;;;13.32;100.00;98923.22;4992255;28;19914;-50
2023/10/19 04:01:07;;;;;;;5.68;2.40;;;;;;;13.31;100.00;98924.16;5023690;28;20112;-55
2023/10/19 04:03:32;;;;;;;4.35;2.55;;;;;;;13.31;100.00;98923.34;5047274;28;20129;-54
2023/10/19 04:06:01;;;;;;;7.68;2.33;;;;;;;13.01;100.00;98875.38;5031812;28;20030;-50
2023/10/19 04:08:26;;;;;;;4.75;2.40;;;;;;;13.32;100.00;98932.94;5031657;28;20040;-54
2023/10/19 04:11:08;;;;;;;8.65;2.40;;;;;;;13.36;100.00;98937.06;5032052;28;20026;-51
2023/10/19 04:13:35;;;;;;;9.40;2.20;;;;;;;13.03;100.00;98876.94;5030560;28;20143;-56
2023/10/19 04:16:02;;;;;;;6.60;2.30;;;;;;;13.38;100.00;98951.00;5046718;28;20492;-53
2023/10/19 04:18:27;;;;;;;5.50;2.25;;;;;;;13.37;100.00;98931.66;5045612;28;20044;-52
2023/10/19 04:23:18;;;;;;;7.60;2.38;;;;;;;13.32;100.00;98925.88;5031842;28;20037;-53
2023/10/19 04:25:46;;;;;;;4.47;2.25;;;;;;;13.09;100.00;98883.59;5032004;28;20041;-51
2023/10/19 04:28:13;;;;;;;6.00;2.13;;;;;;;13.43;100.00;98933.84;5031865;28;20041;-52
2023/10/19 04:30:39;;;;;;;5.35;1.88;;;;;;;13.23;100.00;98899.28;5031645;28;20038;-55
2023/10/19 04:33:09;;;;;;;8.70;2.05;;;;;;;13.44;100.00;98937.31;5030303;28;20037;-54
2023/10/19 04:35:37;;;;;;;7.05;2.30;;;;;;;13.45;100.00;98920.53;5029593;28;20059;-55
2023/10/19 04:38:06;;;;;;;7.00;2.28;;;;;;;13.09;100.00;98862.47;5031780;28;20059;-51
2023/10/19 04:40:31;;;;;;;7.05;2.40;;;;;;;13.47;100.00;98915.97;5031778;28;20065;-52
2023/10/19 04:42:57;;;;;;;5.78;2.30;;;;;;;13.53;100.00;98926.06;5031658;28;20061;-54
2023/10/19 04:45:23;;;;;;;4.75;2.17;;;;;;;13.56;100.00;98925.00;5031669;28;20041;-54
2023/10/19 04:47:52;;;;;;;5.28;1.98;;;;;;;13.51;100.00;98922.72;5031337;28;20048;-53
2023/10/19 04:50:18;;;;;;;7.18;2.28;;;;;;;13.51;100.00;98918.25;5031750;28;20091;-50
2023/10/19 04:52:43;;;;;;;8.10;2.40;;;;;;;13.42;100.00;98918.13;5030027;28;20484;-54
2023/10/19 04:55:08;;;;;;;6.90;2.20;;;;;;;13.47;100.00;98915.97;5031672;28;20474;-49
2023/10/19 04:57:33;;;;;;;8.10;2.20;;;;;;;13.58;100.00;98934.50;5046955;28;20046;-51
2023/10/19 04:59:59;;;;;;;6.97;2.22;;;;;;;13.54;100.00;98922.50;5031414;28;20048;-53
2023/10/19 05:02:25;;;;;;;8.25;1.88;;;;;;;12.50;100.00;98742.72;5031436;28;20424;-55
2023/10/19 05:04:50;;;;;;;4.75;2.03;;;;;;;13.68;100.00;98945.25;5031210;28;20044;-56
2023/10/19 05:07:18;;;;;;;8.90;2.00;;;;;;;13.60;100.00;98922.00;5029572;28;20048;-53
2023/10/19 05:09:44;;;;;;;4.53;1.75;;;;;;;13.33;100.00;98874.72;5030208;28;20029;-51
2023/10/19 05:12:11;;;;;;;5.82;2.03;;;;;;;13.39;100.00;98898.03;5034627;28;20076;-55
2023/10/19 05:14:37;;;;;;;9.80;2.00;;;;;;;13.58;100.00;98923.94;5049946;28;20538;-56
2023/10/19 05:17:06;;;;;;;8.40;2.58;;;;;;;13.29;100.00;98872.41;5033303;28;20029;-53
2023/10/19 05:19:32;;;;;;;5.15;2.38;;;;;;;13.32;100.00;98878.31;5034982;28;20029;-50
2023/10/19 05:21:57;;;;;;;3.47;2.03;;;;;;;13.67;100.00;98925.88;5032479;28;20041;-56
2023/10/19 05:24:22;;;;;;;10.18;1.83;;;;;;;13.75;100.00;98943.81;5034732;28;20029;-54
2023/10/19 05:26:48;;;;;;;6.13;1.65;;;;;;;13.44;100.00;98895.91;5034710;28;20030;-55
2023/10/19 05:29:13;;;;;;;7.57;1.92;;;;;;;13.31;100.00;98884.53;5034546;28;20045;-54
2023/10/19 05:31:39;;;;;;;10.90;2.03;;;;;;;13.72;100.00;98936.94;5034020;28;20029;-51
2023/10/19 05:34:04;;;;;;;7.10;2.15;;;;;;;13.58;100.00;98910.72;5034287;28;20136;-59
2023/10/19 05:36:32;;;;;;;4.38;1.77;;;;;;;13.77;100.00;98934.81;5034075;28;20046;-52
2023/10/19 05:38:57;;;;;;;8.55;1.80;;;;;;;13.43;100.00;98873.06;5032812;28;20079;-50
2023/10/19 05:41:22;;;;;;;4.82;1.90;;;;;;;13.75;100.00;98933.22;5034597;28;20033;-52
2023/10/19 05:43:49;;;;;;;4.60;2.45;;;;;;;13.55;100.00;98900.38;5034311;28;20377;-57
2023/10/19 05:46:18;;;;;;;5.03;1.85;;;;;;;13.72;100.00;98926.38;5034362;28;20037;-50
2023/10/19 05:48:43;;;;;;;6.93;1.60;;;;;;;13.75;100.00;98936.72;5034573;28;20034;-54
2023/10/19 05:51:09;;;;;;;6.53;1.95;;;;;;;13.47;100.00;98874.53;5034379;28;20552;-50
2023/10/19 05:53:34;;;;;;;6.05;2.17;;;;;;;13.63;100.00;98899.81;5034322;28;20162;-55
2023/10/19 05:55:59;;;;;;;6.40;1.80;;;;;;;13.80;100.00;98921.38;5031962;28;20136;-54
2023/10/19 05:58:25;;;;;;;8.25;2.60;;;;;;;13.79;100.00;98918.81;5034148;28;20030;-57
2023/10/19 06:00:51;;;;;;;8.07;2.33;;;;;;;13.27;100.00;98848.75;5034010;28;20022;-51
2023/10/19 06:03:17;;;;;;;5.72;1.60;;;;;;;13.71;100.00;98935.28;5034250;28;20041;-51
2023/10/19 06:05:43;;;;;;;8.65;1.67;;;;;;;13.37;100.00;98872.66;5065658;28;20040;-52
2023/10/19 06:08:08;;;;;;;11.68;2.80;;;;;;;13.31;100.00;98866.03;5033969;28;20083;-52
2023/10/19 06:10:35;;;;;;;8.30;2.17;;;;;;;13.42;100.00;98881.09;5049260;28;20033;-53
2023/10/19 06:13:00;;;;;;;6.63;2.15;;;;;;;13.71;100.00;98947.66;5030656;28;20037;-53
2023/10/19 06:15:25;;;;;;;12.50;2.35;;;;;;;13.64;100.00;98949.06;5033751;28;20038;-53
2023/10/19 06:17:52;;;;;;;6.70;1.98;;;;;;;13.43;100.00;98899.47;5033730;28;20037;-58
2023/10/19 06:20:23;;;;;;;7.55;1.88;;;;;;;13.80;100.00;98949.63;5032520;28;20430;-53
2023/10/19 06:22:50;;;;;;;9.93;2.05;;;;;;;13.85;100.00;98956.25;5031268;28;20033;-55
2023/10/19 06:25:21;;;;;;;6.57;2.58;;;;;;;13.93;100.00;98955.66;5032521;28;20068;-53
2023/10/19 06:27:46;;;;;;;10.40;2.63;;;;;;;13.61;100.00;98893.78;5033301;28;20033;-53
2023/10/19 06:30:17;;;;;;;7.10;2.30;;;;;;;13.67;100.00;98902.09;5033581;28;20052;-50
2023/10/19 06:32:44;;;;;;;4.07;2.17;;;;;;;13.71;100.00;98898.28;5031947;28;20048;-51
2023/10/19 06:35:11;;;;;;;6.65;2.10;;;;;;;13.86;100.00;98941.22;5031288;28;20053;-53
2023/10/19 06:37:36;;;;;;;6.50;2.13;;;;;;;13.57;100.00;98901.13;5018907;28;20030;-56
2023/10/19 06:40:01;;;;;;;8.73;2.20;;;;;;;13.53;100.00;98902.28;5016268;28;20033;-50
2023/10/19 06:42:27;;;;;;;11.57;2.22;;;;;;;13.85;100.00;98965.97;5032862;28;20034;-49
2023/10/19 06:44:55;;;;;;;4.47;1.95;;;;;;;13.91;100.00;98968.16;5033431;28;20030;-49
2023/10/19 06:47:22;;;;;;;7.45;2.45;;;;;;;13.76;100.00;98937.56;5031423;28;20044;-51
2023/10/19 06:49:48;;;;;;;5.47;2.13;;;;;;;13.85;100.00;98956.25;5029727;28;20048;-56
2023/10/19 06:52:13;;;;;;;4.88;2.03;;;;;;;13.90;100.00;98955.88;5030975;28;20041;-51
2023/10/19 06:54:39;;;;;;;7.13;2.30;;;;;;;13.73;100.00;98922.78;5029144;28;20037;-56
2023/10/19 06:57:05;;;;;;;8.40;2.50;;;;;;;13.74;100.00;98908.63;5029785;28;20041;-54
2023/10/19 06:59:33;;;;;;;11.32;2.80;;;;;;;14.09;100.00;98958.84;5033149;28;20091;-51
2023/10/19 07:02:01;;;;;;;4.90;2.28;;;;;;;14.07;100.00;98964.22;5032464;28;20495;-54
2023/10/19 07:04:26;;;;;;;9.52;3.00;;;;;;;14.13;100.00;98970.03;5033019;28;20116;-52
2023/10/19 07:06:51;;;;;;;8.18;2.42;;;;;;;13.74;100.00;98892.75;5032966;28;20457;-52
2023/10/19 07:09:18;;;;;;;7.18;1.98;;;;;;;13.75;100.00;98907.63;5029778;28;20091;-52
2023/10/19 07:11:44;;;;;;;4.30;2.05;;;;;;;13.83;100.00;98913.22;5030330;28;20128;-53
2023/10/19 07:14:10;;;;;;;7.65;2.10;;;;;;;13.83;100.00;98910.56;5032487;28;20276;-49
2023/10/19 07:16:36;;;;;;;6.65;2.22;;;;;;;13.94;100.00;98922.97;5032578;28;20034;-52
2023/10/19 07:19:01;;;;;;;7.90;2.08;;;;;;;14.30;100.00;98988.91;5029602;28;20496;-52
2023/10/19 07:21:29;;;;;;;9.73;2.28;;;;;;;14.25;100.00;98985.78;5032696;28;20393;-52
2023/10/19 07:23:55;;;;;;;7.18;2.65;;;;;;;14.24;100.00;98977.97;5032464;28;20116;-49
2023/10/19 07:26:30;;;;;;;6.65;2.28;;;;;;;14.29;100.00;98975.81;5032362;28;20029;-55
2023/10/19 07:28:55;;;;;;;6.50;2.50;;;;;;;14.33;100.00;98977.31;5032647;28;20037;-51
2023/10/19 07:31:21;;;;;;;6.97;3.15;;;;;;;14.05;100.00;98922.97;5032615;28;20041;-48
2023/10/19 07:33:49;;;;;;;7.35;2.30;;;;;;;14.07;100.00;98916.59;5030624;28;20044;-52
2023/10/19 07:36:15;;;;;;;6.15;2.70;;;;;;;14.44;100.00;98978.16;5031876;28;20052;-50
2023/10/19 07:38:42;;;;;;;7.82;2.72;;;;;;;14.46;100.00;98972.75;5032118;28;20436;-51
2023/10/19 07:41:09;;;;;;;9.65;2.80;;;;;;;14.49;100.00;98965.41;5032325;28;20396;-53
2023/10/19 07:43:35;;;;;;;6.70;2.13;;;;;;;14.24;100.00;98923.25;5032378;28;20060;-54
2023/10/19 07:46:01;;;;;;;6.00;2.00;;;;;;;14.52;100.00;98970.47;5031006;28;20500;-50
2023/10/19 07:48:26;;;;;;;11.25;3.03;;;;;;;14.68;100.00;98987.81;5032073;28;20040;-54
2023/10/19 07:50:53;;;;;;;9.77;2.42;;;;;;;14.75;100.00;98995.16;5030461;28;20038;-52
2023/10/19 07:53:18;;;;;;;10.77;2.33;;;;;;;14.49;100.00;98941.59;5032178;28;20021;-54
2023/10/19 07:55:44;;;;;;;8.18;2.38;;;;;;;14.56;100.00;98944.59;5032314;28;20045;-49
2023/10/19 07:58:10;;;;;;;9.75;2.13;;;;;;;14.91;100.00;98997.44;5032097;28;20084;-51
2023/10/19 08:00:35;;;;;;;10.73;2.33;;;;;;;14.71;100.00;98934.59;5032075;28;20030;-51
2023/10/19 08:03:02;;;;;;;9.15;2.50;;;;;;;14.73;100.00;98940.63;5030368;28;20413;-56
2023/10/19 08:05:28;;;;;;;7.45;2.63;;;;;;;15.04;100.00;98983.09;5031664;28;20029;-52
2023/10/19 08:07:53;;;;;;;8.13;2.53;;;;;;;15.07;100.00;98977.53;5045483;28;20429;-54
2023/10/19 08:10:19;;;;;;;6.93;2.25;;;;;;;14.86;100.00;98930.72;5032151;28;20052;-51
2023/10/19 08:12:47;;;;;;;6.95;2.42;;;;;;;15.17;100.00;98980.31;5031865;28;20030;-51
2023/10/19 08:15:15;;;;;;;5.72;2.20;;;;;;;15.19;100.00;98989.81;5046946;28;20152;-53
2023/10/19 08:17:42;;;;;;;8.35;2.13;;;;;;;14.63;100.00;98877.78;5046988;28;20041;-51
2023/10/19 08:20:09;;;;;;;7.40;2.20;;;;;;;15.03;100.00;98928.41;5047023;28;20061;-51
2023/10/19 08:22:36;;;;;;;5.25;2.80;;;;;;;15.37;100.00;98986.66;5031736;28;20492;-54
2023/10/19 08:25:11;;;;;;;9.38;2.85;;;;;;;15.03;100.00;98923.09;5030095;28;20049;-52
2023/10/19 08:27:39;;;;;;;4.82;2.60;;;;;;;15.30;100.00;98972.19;5031968;28;20034;-55
2023/10/19 08:30:08;;;;;;;12.27;2.83;;;;;;;15.07;100.00;98927.19;5031586;28;20034;-52
2023/10/19 08:32:34;;;;;;;7.18;2.55;;;;;;;15.23;100.00;98948.81;5031565;28;20060;-55
2023/10/19 08:35:00;;;;;;;8.23;2.45;;;;;;;15.42;100.00;98973.84;5031350;28;20599;-51
2023/10/19 08:37:26;;;;;;;7.38;3.13;;;;;;;15.16;100.00;98929.09;5030567;28;20042;-51
2023/10/19 08:39:51;;;;;;;8.77;3.22;;;;;;;15.51;100.00;98981.94;5029875;28;20034;-54
2023/10/19 08:42:17;;;;;;;9.68;3.17;;;;;;;15.62;100.00;98981.03;5031652;28;20120;-57
2023/10/19 08:44:42;;;;;;;8.07;2.45;;;;;;;15.72;100.00;98972.22;5031865;28;20416;-55
2023/10/19 08:47:08;;;;;;;5.97;2.53;;;;;;;15.80;100.00;98968.06;5050390;28;20030;-52
2023/10/19 08:49:33;;;;;;;8.93;2.88;;;;;;;15.88;100.00;98973.59;5034104;28;20461;-48
2023/10/19 08:52:00;;;;;;;11.48;3.30;;;;;;;16.03;100.00;98977.59;5035177;28;20080;-56
2023/10/19 08:54:27;;;;;;;6.80;2.38;;;;;;;16.11;100.00;98978.63;5050618;28;20492;-53
2023/10/19 08:56:52;;;;;;;6.00;3.03;;;;;;;15.90;100.00;98902.69;5033337;28;20029;-52
2023/10/19 08:59:18;;;;;;;14.25;3.38;;;;;;;16.46;100.00;98969.53;5050617;28;20473;-52
2023/10/19 09:01:43;;;;;;;6.53;2.70;;;;;;;16.44;100.00;98952.84;5035265;28;20026;-53
2023/10/19 09:04:13;;;;;;;5.93;2.90;;;;;;;16.59;100.00;98968.34;5034860;28;20033;-56
2023/10/19 09:06:41;;;;;;;16.23;3.85;;;;;;;16.74;100.00;98974.16;5033440;28;20025;-52
2023/10/19 09:09:25;;;;;;;11.00;2.80;;;;;;;16.78;100.00;98979.06;5035002;28;20041;-53
2023/10/19 09:11:52;;;;;;;8.82;2.90;;;;;;;16.77;100.00;98979.19;5030667;28;20029;-52
2023/10/19 09:14:43;;;;;;;10.02;3.20;;;;;;;16.80;100.00;98970.97;5032859;28;20060;-55
2023/10/19 09:17:10;;;;;;;9.23;2.70;;;;;;;16.83;100.00;98978.66;5034944;28;20027;-58
2023/10/19 09:19:40;;;;;;;11.10;3.08;;;;;;;16.89;100.00;98970.16;5034817;28;20033;-52
2023/10/19 09:22:16;;;;;;;10.70;3.75;;;;;;;16.90;100.00;98947.91;5031843;28;20072;-51
2023/10/19 09:24:43;;;;;;;13.07;3.20;;;;;;;16.97;100.00;98953.53;5012142;28;20045;-56
2023/10/19 09:27:08;;;;;;;12.57;3.30;;;;;;;17.14;100.00;98977.66;5049531;28;20033;-52
2023/10/19 09:29:33;;;;;;;6.97;2.78;;;;;;;17.22;100.00;98971.66;5032734;28;20397;-51
2023/10/19 09:32:03;;;;;;;9.25;2.90;;;;;;;17.38;100.00;98958.66;5034384;28;20041;-53
2023/10/19 09:34:31;;;;;;;15.20;2.92;;;;;;;17.09;100.00;98909.91;5034140;28;20397;-54
2023/10/19 09:37:00;;;;;;;11.82;3.40;;;;;;;17.01;100.00;98907.97;5034430;28;20061;-52
2023/10/19 09:39:35;;;;;;;9.32;3.15;;;;;;;17.37;100.00;98951.66;5034559;28;20061;-58
2023/10/19 09:42:10;;;;;;;9.00;2.83;;;;;;;17.39;100.00;98937.28;5033399;28;20037;-53
2023/10/19 09:44:41;;;;;;;11.73;3.30;;;;;;;17.51;100.00;98953.94;5047721;28;20481;-55
2023/10/19 09:47:13;;;;;;;12.35;4.38;;;;;;;17.21;100.00;98893.72;5037452;28;20120;-53
2023/10/19 09:49:45;;;;;;;9.75;2.85;;;;;;;17.58;100.00;98951.56;5014104;28;20117;-55
2023/10/19 09:52:11;;;;;;;10.85;2.95;;;;;;;17.62;100.00;98955.66;5020082;28;20133;-57
2023/10/19 09:54:47;;;;;;;11.27;2.75;;;;;;;17.23;100.00;98898.88;5005062;28;20117;-54
2023/10/19 09:57:17;;;;;;;9.88;3.08;;;;;;;17.48;100.00;98970.19;5014280;28;20084;-56
2023/10/19 09:59:45;;;;;;;11.18;3.30;;;;;;;17.14;100.00;98911.19;5015850;28;20066;-56
2023/10/19 10:02:15;;;;;;;12.35;3.05;;;;;;;17.35;100.00;98962.44;5009747;28;20077;-54
2023/10/19 10:04:41;;;;;;;9.32;3.10;;;;;;;17.24;100.00;98962.56;5001951;28;20045;-51
2023/10/19 10:07:09;;;;;;;8.90;3.25;;;;;;;17.17;100.00;98961.41;5029339;28;20062;-51
2023/10/19 10:09:43;;;;;;;10.75;3.13;;;;;;;17.04;100.00;98952.03;5022039;28;20042;-51
2023/10/19 10:12:17;;;;;;;10.50;3.42;;;;;;;16.87;100.00;98918.94;5020092;28;20040;-52
2023/10/19 10:14:59;;;;;;;12.18;3.17;;;;;;;17.00;100.00;98951.44;5025547;28;20061;-57
2023/10/19 10:17:28;;;;;;;10.77;2.90;;;;;;;16.86;100.00;98906.66;5026449;28;20038;-49
2023/10/19 10:19:56;;;;;;;17.27;3.60;;;;;;;16.98;100.00;98907.38;5028617;28;20038;-56
2023/10/19 10:22:22;;;;;;;11.30;3.70;;;;;;;17.08;100.00;98910.88;5027334;28;20108;-52
2023/10/19 10:24:57;;;;;;;11.70;3.85;;;;;;;17.36;100.00;98942.88;5017104;28;20121;-49
2023/10/19 10:27:23;;;;;;;10.35;2.92;;;;;;;17.35;100.00;98940.31;5041611;28;20061;-53
2023/10/19 10:29:58;;;;;;;12.50;4.03;;;;;;;17.11;100.00;98878.72;5023868;28;20507;-52
2023/10/19 10:32:42;;;;;;;10.27;3.40;;;;;;;17.52;100.00;98939.63;5008295;28;20057;-53
2023/10/19 10:35:08;;;;;;;11.02;2.95;;;;;;;17.68;100.00;98947.09;5003041;28;20037;-51
2023/10/19 10:37:36;;;;;;;11.48;3.95;;;;;;;17.45;100.00;98898.63;5024816;28;20052;-51
2023/10/19 10:40:03;;;;;;;10.93;3.25;;;;;;;18.10;100.00;98940.47;5028322;28;20057;-52
2023/10/19 10:42:29;;;;;;;10.18;3.35;;;;;;;18.31;100.00;98949.13;5027251;28;20040;-53
2023/10/19 10:44:55;;;;;;;12.68;3.58;;;;;;;18.66;100.00;98947.66;5015304;28;20112;-52
2023/10/19 10:47:22;;;;;;;8.98;3.85;;;;;;;18.74;100.00;98955.78;5026366;28;20042;-55
2023/10/19 10:49:58;;;;;;;11.13;2.80;;;;;;;18.66;100.00;98942.31;5020736;28;20132;-54
2023/10/19 10:52:34;;;;;;;12.38;3.40;;;;;;;18.82;100.00;98956.72;5017694;28;20469;-53
2023/10/19 10:55:12;;;;;;;8.70;2.95;;;;;;;18.76;100.00;98953.78;5000788;28;20151;-52
2023/10/19 10:57:39;;;;;;;6.45;2.50;;;;;;;18.20;100.00;98884.53;5022370;28;20374;-57
2023/10/19 11:00:19;;;;;;;11.95;2.67;;;;;;;18.25;100.00;98896.44;5012136;28;20037;-54
2023/10/19 11:02:59;;;;;;;9.50;3.40;;;;;;;18.74;100.00;98937.13;5027005;28;20056;-48
2023/10/19 11:05:24;;;;;;;9.68;2.55;;;;;;;18.94;100.00;98886.19;5026793;28;20175;-51
2023/10/19 11:08:13;;;;;;;8.07;2.40;;;;;;;19.80;100.00;98887.41;5026958;28;20546;-55
2023/10/19 11:10:39;;;;;;;9.20;2.65;;;;;;;21.09;100.00;98978.28;5021257;28;20494;-49
2023/10/19 11:13:10;;;;;;;9.30;2.53;;;;;;;21.53;100.00;98984.28;5038535;28;20391;-56
2023/10/19 11:15:39;;;;;;;12.38;2.55;;;;;;;21.42;100.00;98939.94;5019344;28;20034;-51
2023/10/19 11:18:08;;;;;;;10.13;3.03;;;;;;;21.75;100.00;98979.13;5011566;28;20034;-54
2023/10/19 11:20:34;;;;;;;7.68;2.38;;;;;;;21.83;100.00;98930.94;5011609;28;20034;-54
2023/10/19 11:23:02;;;;;;;8.27;2.35;;;;;;;21.65;100.00;98932.09;5012586;28;20048;-55
2023/10/19 11:25:29;;;;;;;10.48;2.80;;;;;;;21.75;100.00;98989.84;5011657;28;20042;-52
2023/10/19 11:27:55;;;;;;;6.72;2.17;;;;;;;21.51;100.00;98968.38;5027353;28;20473;-48
2023/10/19 11:30:26;;;;;;;6.72;2.42;;;;;;;21.43;100.00;98975.53;5032136;28;20041;-56
2023/10/19 11:32:57;;;;;;;9.10;2.30;;;;;;;21.50;100.00;98950.66;5032168;28;20041;-55
2023/10/19 11:35:27;;;;;;;8.13;2.10;;;;;;;21.09;100.00;98908.72;5046982;28;20311;-58
2023/10/19 11:37:54;;;;;;;12.23;2.85;;;;;;;20.85;100.00;98901.41;5032339;28;20103;-57
2023/10/19 11:40:21;;;;;;;8.68;2.20;;;;;;;20.73;100.00;98886.66;5032275;28;20045;-55
2023/10/19 11:42:47;;;;;;;9.45;3.17;;;;;;;21.02;100.00;98935.25;5030714;28;20523;-50
2023/10/19 11:45:12;;;;;;;13.98;2.72;;;;;;;20.77;100.00;98942.34;5045927;28;20041;-52
2023/10/19 11:47:38;;;;;;;9.20;2.45;;;;;;;20.46;100.00;98917.09;5028634;28;20120;-51